Time;durP1;ratioP1;P1;durP2;ratioP2;P2;SDS_P1;SDS_P2;PMS_P1;PMS_P2;Temp;Humidity;BMP_temperature;BMP_pressure;BME280_temperature;BME280_humidity;BME280_pressure;Samples;Min_cycle;Max_cycle;Signal;HPM_P1;HPM_P2
2021/04/02 00:00:49;;;;;;;45.08;17.05;;;;;;;;;;8294627;28;20096;-70
2021/04/02 00:04:53;;;;;;;43.05;15.65;;;;;;;;;;8292754;28;20052;-71
2021/04/02 00:08:56;;;;;;;29.15;10.85;;;;;;;;;;8290901;28;20443;-72
2021/04/02 00:13:01;;;;;;;23.58;8.18;;;;;;;;;;8295049;28;20465;-71
2021/04/02 00:17:05;;;;;;;14.63;6.38;;;;;;;;;;8294323;28;20387;-72
2021/04/02 00:21:13;;;;;;;23.85;7.25;;;;;;;;;;8293098;28;20052;-72
2021/04/02 00:25:17;;;;;;;21.45;7.20;;;;;;;;;;8291152;28;20471;-72
2021/04/02 00:29:21;;;;;;;20.17;7.20;;;;;;;;;;8291281;28;20436;-73
2021/04/02 00:33:31;;;;;;;18.75;6.15;;;;;;;;;;8292964;28;20491;-73
2021/04/02 00:37:36;;;;;;;12.85;5.30;;;;;;;;;;8292648;28;20402;-73
2021/04/02 00:41:40;;;;;;;10.10;4.95;;;;;;;;;;8307355;28;20459;-73
2021/04/02 00:45:44;;;;;;;16.77;4.90;;;;;;;;;;8292548;28;20057;-72
2021/04/02 00:49:49;;;;;;;12.10;5.03;;;;;;;;;;8290258;28;20479;-72
2021/04/02 00:53:55;;;;;;;17.25;5.30;;;;;;;;;;8307362;28;20467;-72
2021/04/02 00:57:59;;;;;;;20.15;6.53;;;;;;;;;;8308655;28;20493;-73
2021/04/02 01:02:04;;;;;;;18.45;6.68;;;;;;;;;;8295288;28;20483;-73
2021/04/02 01:06:24;;;;;;;21.35;6.78;;;;;;;;;;8293753;28;20467;-73
2021/04/02 01:10:32;;;;;;;20.27;8.32;;;;;;;;;;8290480;28;20348;-74
2021/04/02 01:14:37;;;;;;;21.80;7.93;;;;;;;;;;8305032;28;20368;-72
2021/04/02 01:19:10;;;;;;;18.30;7.00;;;;;;;;;;8290909;28;20409;-73
2021/04/02 01:23:20;;;;;;;20.73;7.32;;;;;;;;;;8289551;28;20359;-73
2021/04/02 01:27:28;;;;;;;17.80;6.15;;;;;;;;;;8289754;28;20367;-73
2021/04/02 01:31:37;;;;;;;17.60;6.88;;;;;;;;;;8290365;28;20356;-76
2021/04/02 01:35:44;;;;;;;18.98;7.72;;;;;;;;;;8274146;28;20371;-73
2021/04/02 01:39:51;;;;;;;24.38;7.30;;;;;;;;;;8273839;28;20375;-72
2021/04/02 01:43:59;;;;;;;23.85;9.18;;;;;;;;;;8289646;28;20071;-74
2021/04/02 01:48:06;;;;;;;24.30;9.77;;;;;;;;;;8290962;28;20364;-73
2021/04/02 01:52:12;;;;;;;24.08;11.07;;;;;;;;;;8288879;28;20679;-73
2021/04/02 01:56:18;;;;;;;22.35;10.52;;;;;;;;;;8289141;28;20497;-73
2021/04/02 02:00:41;;;;;;;20.38;10.52;;;;;;;;;;8306487;28;20359;-73
2021/04/02 02:04:49;;;;;;;25.95;11.63;;;;;;;;;;8289496;28;20083;-73
2021/04/02 02:08:57;;;;;;;29.27;13.90;;;;;;;;;;8287959;28;20390;-73
2021/04/02 02:13:08;;;;;;;32.03;16.17;;;;;;;;;;8289874;28;20466;-73
2021/04/02 02:17:22;;;;;;;34.05;18.02;;;;;;;;;;8272409;28;20070;-73
2021/04/02 02:21:28;;;;;;;32.85;18.20;;;;;;;;;;8288471;28;20371;-73
2021/04/02 02:25:38;;;;;;;31.60;18.45;;;;;;;;;;8304194;28;20460;-73
2021/04/02 02:29:45;;;;;;;32.63;19.52;;;;;;;;;;8294814;28;20052;-73
2021/04/02 02:33:50;;;;;;;37.25;19.48;;;;;;;;;;8296286;28;20443;-72
2021/04/02 02:38:09;;;;;;;34.13;19.03;;;;;;;;;;8311183;28;20044;-72
2021/04/02 02:42:16;;;;;;;29.35;17.05;;;;;;;;;;8294186;28;20474;-72
2021/04/02 02:46:24;;;;;;;23.55;14.68;;;;;;;;;;8296792;28;20414;-72
2021/04/02 02:50:33;;;;;;;14.50;8.73;;;;;;;;;;8294739;28;20391;-72
2021/04/02 02:54:40;;;;;;;10.77;7.25;;;;;;;;;;8310859;28;20446;-72
2021/04/02 02:58:45;;;;;;;11.60;6.50;;;;;;;;;;8293554;28;20374;-72
2021/04/02 03:02:54;;;;;;;7.70;5.10;;;;;;;;;;8277741;28;20063;-72
2021/04/02 03:07:00;;;;;;;11.40;6.35;;;;;;;;;;8295027;28;20364;-74
2021/04/02 03:11:10;;;;;;;9.32;5.63;;;;;;;;;;8293850;28;20344;-72
2021/04/02 03:15:19;;;;;;;8.95;5.70;;;;;;;;;;8293112;28;20405;-72
2021/04/02 03:19:26;;;;;;;11.82;6.03;;;;;;;;;;8294406;28;20082;-72
2021/04/02 03:23:43;;;;;;;10.23;5.60;;;;;;;;;;8277277;28;20052;-72
2021/04/02 03:27:50;;;;;;;8.50;5.53;;;;;;;;;;8294484;28;20386;-72
2021/04/02 03:32:12;;;;;;;7.60;4.70;;;;;;;;;;8279267;28;20478;-72
2021/04/02 03:36:22;;;;;;;7.20;4.25;;;;;;;;;;8293317;28;20435;-72
2021/04/02 03:40:30;;;;;;;7.05;3.60;;;;;;;;;;8277232;28;20474;-72
2021/04/02 03:44:40;;;;;;;7.32;3.72;;;;;;;;;;8291661;28;20379;-72
2021/04/02 03:48:50;;;;;;;9.32;4.18;;;;;;;;;;8293971;28;20049;-72
2021/04/02 03:53:24;;;;;;;8.82;4.20;;;;;;;;;;8276447;28;20379;-74
2021/04/02 03:57:30;;;;;;;7.45;3.83;;;;;;;;;;8293670;28;20048;-71
2021/04/02 04:01:47;;;;;;;5.32;3.30;;;;;;;;;;8276598;28;20471;-72
2021/04/02 04:05:57;;;;;;;4.63;3.22;;;;;;;;;;8276371;28;20390;-72
2021/04/02 04:10:04;;;;;;;5.10;3.17;;;;;;;;;;8308325;28;20460;-71
2021/04/02 04:14:12;;;;;;;3.75;2.55;;;;;;;;;;8294189;28;20476;-71
2021/04/02 04:18:20;;;;;;;3.00;2.33;;;;;;;;;;8276032;28;20488;-71
2021/04/02 04:22:27;;;;;;;4.10;2.60;;;;;;;;;;8275633;28;20053;-71
2021/04/02 04:26:33;;;;;;;4.63;2.88;;;;;;;;;;8308018;28;20805;-71
2021/04/02 04:30:47;;;;;;;3.13;2.30;;;;;;;;;;8307656;28;20378;-70
2021/04/02 04:34:51;;;;;;;3.13;2.22;;;;;;;;;;8290303;28;20512;-72
2021/04/02 04:38:58;;;;;;;3.63;3.08;;;;;;;;;;8295778;28;20519;-71
2021/04/02 04:43:07;;;;;;;3.30;2.28;;;;;;;;;;8274321;28;20079;-72
2021/04/02 04:47:12;;;;;;;2.50;2.10;;;;;;;;;;8292458;28;20383;-71
2021/04/02 04:51:20;;;;;;;2.95;2.10;;;;;;;;;;8292594;28;20044;-70
2021/04/02 04:55:25;;;;;;;2.50;2.30;;;;;;;;;;8289952;28;20408;-69
2021/04/02 04:59:32;;;;;;;2.92;2.63;;;;;;;;;;8289757;28;20356;-70
2021/04/02 05:03:39;;;;;;;2.95;2.65;;;;;;;;;;8291035;28;20049;-70
2021/04/02 05:07:50;;;;;;;2.95;2.65;;;;;;;;;;8290283;28;20052;-70
2021/04/02 05:11:58;;;;;;;3.35;3.05;;;;;;;;;;8289763;28;20387;-71
2021/04/02 05:16:05;;;;;;;4.90;3.90;;;;;;;;;;8288035;28;20390;-70
2021/04/02 05:20:11;;;;;;;5.05;3.90;;;;;;;;;;8289367;28;20447;-70
2021/04/02 05:24:16;;;;;;;5.90;4.47;;;;;;;;;;8290228;28;20459;-70
2021/04/02 05:28:20;;;;;;;9.07;5.45;;;;;;;;;;8291459;28;20503;-71
2021/04/02 05:32:25;;;;;;;5.28;4.45;;;;;;;;;;8288230;28;20387;-69
2021/04/02 05:36:29;;;;;;;6.97;4.93;;;;;;;;;;8290000;28;20495;-72
2021/04/02 05:40:33;;;;;;;7.97;5.65;;;;;;;;;;8289350;28;20485;-70
2021/04/02 05:44:39;;;;;;;4.85;4.32;;;;;;;;;;8305346;28;20604;-70
2021/04/02 05:48:45;;;;;;;5.38;4.50;;;;;;;;;;8291544;28;20359;-70
2021/04/02 05:52:51;;;;;;;5.07;4.20;;;;;;;;;;8291001;28;20455;-72
2021/04/02 05:56:56;;;;;;;7.13;3.80;;;;;;;;;;8291602;28;20363;-71
2021/04/02 06:01:02;;;;;;;5.47;4.45;;;;;;;;;;8294531;28;20467;-71
2021/04/02 06:05:06;;;;;;;6.18;4.32;;;;;;;;;;8293302;28;20459;-71
2021/04/02 06:09:12;;;;;;;8.02;4.20;;;;;;;;;;8293874;28;20463;-70
2021/04/02 06:13:17;;;;;;;6.38;4.30;;;;;;;;;;8293784;28;20358;-72
2021/04/02 06:17:21;;;;;;;6.45;4.50;;;;;;;;;;8290455;28;20339;-71
2021/04/02 06:21:26;;;;;;;4.38;3.92;;;;;;;;;;8289842;28;20479;-71
2021/04/02 06:25:31;;;;;;;5.95;4.32;;;;;;;;;;8287903;28;20052;-71
2021/04/02 06:29:41;;;;;;;5.25;3.88;;;;;;;;;;8291094;28;20470;-72
2021/04/02 06:33:52;;;;;;;8.23;4.45;;;;;;;;;;8289320;28;20479;-71
2021/04/02 06:37:56;;;;;;;7.60;4.72;;;;;;;;;;8291714;28;20404;-71
2021/04/02 06:42:03;;;;;;;5.20;4.30;;;;;;;;;;8293397;28;20363;-71
2021/04/02 06:46:09;;;;;;;5.75;4.38;;;;;;;;;;8291407;28;20383;-71
2021/04/02 06:50:23;;;;;;;4.97;3.53;;;;;;;;;;8289416;28;20475;-71
2021/04/02 06:54:29;;;;;;;5.88;4.30;;;;;;;;;;8291044;28;20375;-71
2021/04/02 06:58:36;;;;;;;11.40;5.75;;;;;;;;;;8293997;28;20061;-70
2021/04/02 07:02:43;;;;;;;52.00;17.48;;;;;;;;;;8291492;28;20467;-71
2021/04/02 07:06:49;;;;;;;16.83;8.93;;;;;;;;;;8287852;28;20075;-71
2021/04/02 07:10:57;;;;;;;15.52;7.75;;;;;;;;;;8288638;28;20562;-70
2021/04/02 07:15:00;;;;;;;9.07;5.22;;;;;;;;;;8292246;28;20052;-70
2021/04/02 07:19:03;;;;;;;12.18;5.70;;;;;;;;;;8293385;28;20063;-71
2021/04/02 07:23:07;;;;;;;16.45;13.27;;;;;;;;;;8295827;28;20078;-71
2021/04/02 07:27:14;;;;;;;6.78;4.47;;;;;;;;;;8294314;28;20447;-71
2021/04/02 07:31:22;;;;;;;7.00;5.32;;;;;;;;;;8296596;28;20487;-71
2021/04/02 07:35:27;;;;;;;6.30;4.25;;;;;;;;;;8294319;28;20067;-71
2021/04/02 07:39:32;;;;;;;5.28;3.92;;;;;;;;;;8293458;28;20386;-70
2021/04/02 07:43:52;;;;;;;12.50;7.25;;;;;;;;;;8296036;28;20387;-71
2021/04/02 07:48:16;;;;;;;5.15;4.43;;;;;;;;;;8297454;28;20469;-71
2021/04/02 07:52:40;;;;;;;7.63;5.22;;;;;;;;;;8297596;28;20414;-72
2021/04/02 07:56:51;;;;;;;7.57;4.82;;;;;;;;;;8297629;28;20601;-71
2021/04/02 08:01:01;;;;;;;7.88;6.32;;;;;;;;;;8277482;28;20471;-71
2021/04/02 08:05:14;;;;;;;10.18;6.28;;;;;;;;;;8294768;28;20067;-70
2021/04/02 08:09:22;;;;;;;4.38;3.75;;;;;;;;;;8292229;28;20052;-71
2021/04/02 08:13:26;;;;;;;3.83;3.03;;;;;;;;;;8293364;28;20486;-71
2021/04/02 08:17:30;;;;;;;4.13;3.28;;;;;;;;;;8294022;28;20482;-72
2021/04/02 08:21:37;;;;;;;6.57;4.53;;;;;;;;;;8295182;28;20479;-70
2021/04/02 08:25:40;;;;;;;6.45;4.20;;;;;;;;;;8293766;28;20049;-71
2021/04/02 08:30:01;;;;;;;6.40;4.32;;;;;;;;;;8290698;28;20507;-72
2021/04/02 08:34:09;;;;;;;8.57;5.15;;;;;;;;;;8291638;28;20483;-72
2021/04/02 08:38:13;;;;;;;7.40;3.97;;;;;;;;;;8291562;28;20452;-72
2021/04/02 08:42:18;;;;;;;5.68;3.58;;;;;;;;;;8290673;28;20380;-71
2021/04/02 08:46:38;;;;;;;4.97;3.97;;;;;;;;;;8291787;28;20375;-72
2021/04/02 08:50:49;;;;;;;6.80;3.92;;;;;;;;;;8291348;28;20406;-71
2021/04/02 08:55:03;;;;;;;8.00;4.72;;;;;;;;;;8292055;28;20345;-71
2021/04/02 08:59:11;;;;;;;6.20;4.63;;;;;;;;;;8307057;28;20353;-71
2021/04/02 09:03:16;;;;;;;4.47;3.22;;;;;;;;;;8292600;28;20505;-71
2021/04/02 09:07:20;;;;;;;3.85;2.65;;;;;;;;;;8292160;28;20367;-71
2021/04/02 09:11:27;;;;;;;2.40;2.00;;;;;;;;;;8290641;28;20052;-72
2021/04/02 09:15:34;;;;;;;3.75;2.33;;;;;;;;;;8292468;28;20373;-74
2021/04/02 09:19:39;;;;;;;3.38;2.10;;;;;;;;;;8289403;28;20484;-71
2021/04/02 09:23:49;;;;;;;2.33;1.90;;;;;;;;;;8290874;28;20356;-71
2021/04/02 09:28:07;;;;;;;2.90;1.83;;;;;;;;;;8291789;28;20473;-70
2021/04/02 09:32:12;;;;;;;3.78;1.50;;;;;;;;;;8292660;28;20352;-71
2021/04/02 09:36:17;;;;;;;4.90;1.83;;;;;;;;;;8290536;28;20378;-70
2021/04/02 09:40:28;;;;;;;3.08;1.98;;;;;;;;;;8290815;28;20479;-72
2021/04/02 09:44:39;;;;;;;2.22;1.45;;;;;;;;;;8291523;28;20044;-71
2021/04/02 09:48:46;;;;;;;2.38;1.30;;;;;;;;;;8291072;28;20370;-71
2021/04/02 09:52:52;;;;;;;5.93;2.28;;;;;;;;;;8290313;28;20363;-71
2021/04/02 09:57:01;;;;;;;4.57;2.20;;;;;;;;;;8290169;28;20493;-71
2021/04/02 10:01:06;;;;;;;5.95;3.13;;;;;;;;;;8289772;28;20471;-71
2021/04/02 10:05:12;;;;;;;3.75;2.20;;;;;;;;;;8288303;28;20487;-71
2021/04/02 10:09:16;;;;;;;4.18;2.00;;;;;;;;;;8291979;28;20119;-71
2021/04/02 10:13:21;;;;;;;6.18;3.55;;;;;;;;;;8291099;28;20475;-74
2021/04/02 10:17:27;;;;;;;4.28;2.60;;;;;;;;;;8291804;28;20452;-71
2021/04/02 10:21:33;;;;;;;5.15;2.28;;;;;;;;;;8290259;28;20473;-71
2021/04/02 10:25:38;;;;;;;6.05;1.60;;;;;;;;;;8289781;28;20443;-72
2021/04/02 10:29:42;;;;;;;2.10;1.50;;;;;;;;;;8289370;28;20463;-71
2021/04/02 10:33:47;;;;;;;6.88;2.85;;;;;;;;;;8290516;28;20391;-70
2021/04/02 10:37:52;;;;;;;2.03;1.50;;;;;;;;;;8292065;28;20486;-71
2021/04/02 10:41:56;;;;;;;1.88;1.50;;;;;;;;;;8288885;28;20498;-71
2021/04/02 10:46:02;;;;;;;2.63;1.60;;;;;;;;;;8288965;28;20502;-71
2021/04/02 10:50:10;;;;;;;7.30;3.08;;;;;;;;;;8294045;28;20075;-71
2021/04/02 10:54:14;;;;;;;3.25;2.05;;;;;;;;;;8296301;28;20394;-71
2021/04/02 10:58:19;;;;;;;3.00;2.05;;;;;;;;;;8297030;28;20471;-70
2021/04/02 11:02:23;;;;;;;5.82;2.70;;;;;;;;;;8295952;28;20360;-70
2021/04/02 11:06:27;;;;;;;3.45;2.50;;;;;;;;;;8295909;28;20469;-70
2021/04/02 11:10:32;;;;;;;3.20;1.88;;;;;;;;;;8296373;28;20486;-70
2021/04/02 11:14:39;;;;;;;7.20;2.95;;;;;;;;;;8295271;28;20505;-71
2021/04/02 11:18:46;;;;;;;3.42;2.03;;;;;;;;;;8295836;28;20451;-70
2021/04/02 11:22:50;;;;;;;9.32;4.63;;;;;;;;;;8294991;28;20044;-70
2021/04/02 11:26:57;;;;;;;5.03;1.80;;;;;;;;;;8294901;28;20461;-71
2021/04/02 11:31:01;;;;;;;2.93;1.67;;;;;;;;;;8295070;28;20464;-72
2021/04/02 11:35:10;;;;;;;3.03;2.00;;;;;;;;;;8292212;28;20371;-70
2021/04/02 11:39:15;;;;;;;6.22;2.45;;;;;;;;;;8293237;28;20365;-71
2021/04/02 11:43:19;;;;;;;4.78;2.28;;;;;;;;;;8309892;28;20463;-71
2021/04/02 11:47:23;;;;;;;2.88;2.00;;;;;;;;;;8293225;28;20459;-71
2021/04/02 11:51:28;;;;;;;3.40;1.70;;;;;;;;;;8294157;28;20417;-71
2021/04/02 11:55:33;;;;;;;2.47;1.52;;;;;;;;;;8292602;28;20048;-70
2021/04/02 11:59:38;;;;;;;2.40;1.75;;;;;;;;;;8293802;28;20363;-71
2021/04/02 12:03:43;;;;;;;3.05;1.58;;;;;;;;;;8308841;28;20070;-71
2021/04/02 12:07:47;;;;;;;2.63;1.77;;;;;;;;;;8293346;28;20493;-70
2021/04/02 12:11:52;;;;;;;2.55;1.65;;;;;;;;;;8293473;28;20394;-71
2021/04/02 12:15:59;;;;;;;2.78;1.45;;;;;;;;;;8295048;28;20083;-70
2021/04/02 12:20:09;;;;;;;2.10;1.63;;;;;;;;;;8292948;28;20036;-70
2021/04/02 12:24:14;;;;;;;3.28;1.33;;;;;;;;;;8293991;28;20469;-70
2021/04/02 12:28:18;;;;;;;2.80;1.48;;;;;;;;;;8291441;28;20368;-70
2021/04/02 12:32:23;;;;;;;7.38;3.22;;;;;;;;;;8291874;28;20404;-72
2021/04/02 12:36:28;;;;;;;2.08;1.50;;;;;;;;;;8290190;28;20406;-71
2021/04/02 12:40:32;;;;;;;4.63;3.08;;;;;;;;;;8291953;28;20399;-70
2021/04/02 12:44:37;;;;;;;4.72;3.17;;;;;;;;;;8291348;28;20479;-70
2021/04/02 12:48:41;;;;;;;14.30;8.80;;;;;;;;;;8290722;28;20432;-71
2021/04/02 12:52:47;;;;;;;26.40;2.83;;;;;;;;;;8292027;28;20367;-70
2021/04/02 12:56:51;;;;;;;18.17;10.48;;;;;;;;;;8292748;28;20459;-70
2021/04/02 13:00:56;;;;;;;4.82;2.40;;;;;;;;;;8291717;28;20443;-70
2021/04/02 13:05:00;;;;;;;4.28;2.40;;;;;;;;;;8292487;28;20391;-70
2021/04/02 13:09:05;;;;;;;3.53;1.90;;;;;;;;;;8291095;28;20347;-70
2021/04/02 13:13:09;;;;;;;4.25;1.85;;;;;;;;;;8290904;28;20382;-69
2021/04/02 13:17:14;;;;;;;6.60;3.42;;;;;;;;;;8291682;28;20455;-70
2021/04/02 13:21:18;;;;;;;3.97;2.00;;;;;;;;;;8292318;28;20398;-70
2021/04/02 13:25:25;;;;;;;4.47;2.05;;;;;;;;;;8293312;28;20363;-70
2021/04/02 13:29:32;;;;;;;3.85;2.20;;;;;;;;;;8290550;28;20494;-70
2021/04/02 13:33:36;;;;;;;3.72;2.20;;;;;;;;;;8289916;28;20467;-70
2021/04/02 13:37:43;;;;;;;5.15;2.03;;;;;;;;;;8290547;28;20370;-70
2021/04/02 13:41:47;;;;;;;3.63;2.50;;;;;;;;;;8292322;28;20362;-69
2021/04/02 13:45:53;;;;;;;4.43;2.53;;;;;;;;;;8291991;28;20481;-69
2021/04/02 13:49:56;;;;;;;5.53;2.80;;;;;;;;;;8290559;28;20489;-70
2021/04/02 13:53:59;;;;;;;4.90;2.40;;;;;;;;;;8287797;28;20498;-70
2021/04/02 13:58:04;;;;;;;3.47;2.17;;;;;;;;;;8291819;28;20359;-70
2021/04/02 14:02:10;;;;;;;3.28;2.22;;;;;;;;;;8307020;28;20040;-70
2021/04/02 14:06:15;;;;;;;4.90;2.47;;;;;;;;;;8288584;28;20052;-70
2021/04/02 14:10:26;;;;;;;5.47;2.60;;;;;;;;;;8293238;28;20449;-69
2021/04/02 14:14:31;;;;;;;5.78;2.90;;;;;;;;;;8288701;28;20463;-69
2021/04/02 14:18:35;;;;;;;5.50;2.50;;;;;;;;;;8289906;28;20367;-69
2021/04/02 14:22:39;;;;;;;4.90;2.75;;;;;;;;;;8291271;28;20354;-70
2021/04/02 14:26:47;;;;;;;4.57;2.80;;;;;;;;;;8295585;28;20471;-69
2021/04/02 14:30:51;;;;;;;5.43;2.53;;;;;;;;;;8295052;28;20561;-70
2021/04/02 14:34:55;;;;;;;3.42;2.35;;;;;;;;;;8296035;28;20478;-70
2021/04/02 14:39:00;;;;;;;3.75;2.40;;;;;;;;;;8296334;28;20048;-69
2021/04/02 14:43:06;;;;;;;4.25;2.70;;;;;;;;;;8311052;28;20596;-70
2021/04/02 14:47:11;;;;;;;7.05;3.67;;;;;;;;;;8295673;28;20360;-71
2021/04/02 14:51:15;;;;;;;4.60;2.95;;;;;;;;;;8293124;28;20406;-70
2021/04/02 14:55:20;;;;;;;6.15;3.80;;;;;;;;;;8295559;28;20394;-69
2021/04/02 14:59:24;;;;;;;4.40;2.95;;;;;;;;;;8294862;28;20333;-69
2021/04/02 15:03:29;;;;;;;9.30;4.22;;;;;;;;;;8296266;28;20354;-69
2021/04/02 15:07:37;;;;;;;4.47;3.30;;;;;;;;;;8296189;28;20407;-71
2021/04/02 15:11:40;;;;;;;6.10;3.85;;;;;;;;;;8295328;28;20352;-70
2021/04/02 15:15:45;;;;;;;5.82;3.90;;;;;;;;;;8294261;28;20386;-69
2021/04/02 15:19:49;;;;;;;5.88;3.42;;;;;;;;;;8295228;28;20098;-69
2021/04/02 15:23:54;;;;;;;5.20;3.50;;;;;;;;;;8293200;28;20337;-69
2021/04/02 15:27:58;;;;;;;6.18;3.67;;;;;;;;;;8292333;28;20425;-69
2021/04/02 15:32:05;;;;;;;7.50;4.78;;;;;;;;;;8292874;28;20471;-68
2021/04/02 15:36:10;;;;;;;5.50;4.22;;;;;;;;;;8291655;28;20448;-71
2021/04/02 15:40:15;;;;;;;5.82;4.35;;;;;;;;;;8296172;28;20469;-71
2021/04/02 15:44:20;;;;;;;7.65;4.63;;;;;;;;;;8294393;28;20444;-71
2021/04/02 15:48:28;;;;;;;7.53;4.38;;;;;;;;;;8292120;28;20467;-69
2021/04/02 15:52:32;;;;;;;7.22;4.88;;;;;;;;;;8293824;28;20419;-68
2021/04/02 15:56:37;;;;;;;6.90;5.03;;;;;;;;;;8296181;28;20351;-72
2021/04/02 16:00:41;;;;;;;17.25;5.43;;;;;;;;;;8308971;28;20048;-71
2021/04/02 16:04:45;;;;;;;8.63;4.68;;;;;;;;;;8292147;28;20498;-71
2021/04/02 16:08:49;;;;;;;10.18;5.35;;;;;;;;;;8289370;28;20483;-71
2021/04/02 16:13:01;;;;;;;8.50;4.68;;;;;;;;;;8296375;28;20352;-71
2021/04/02 16:17:06;;;;;;;7.78;5.65;;;;;;;;;;8293743;28;20430;-69
2021/04/02 16:21:10;;;;;;;28.98;12.10;;;;;;;;;;8292453;28;20041;-71
2021/04/02 16:25:16;;;;;;;14.30;6.72;;;;;;;;;;8293084;28;20475;-70
2021/04/02 16:29:19;;;;;;;19.30;8.57;;;;;;;;;;8293140;28;20382;-70
2021/04/02 16:33:23;;;;;;;13.30;7.75;;;;;;;;;;8292845;28;20386;-70
2021/04/02 16:37:27;;;;;;;35.95;18.15;;;;;;;;;;8289660;28;20052;-69
2021/04/02 16:41:32;;;;;;;10.65;6.10;;;;;;;;;;8295333;28;20063;-69
2021/04/02 16:45:36;;;;;;;6.15;3.60;;;;;;;;;;8292520;28;20479;-70
2021/04/02 16:49:40;;;;;;;3.85;2.58;;;;;;;;;;8291003;28;20659;-69
2021/04/02 16:53:47;;;;;;;14.80;6.38;;;;;;;;;;8292675;28;20377;-70
2021/04/02 16:57:51;;;;;;;13.73;7.25;;;;;;;;;;8292332;28;20105;-70
2021/04/02 17:01:54;;;;;;;42.72;11.98;;;;;;;;;;8291146;28;20623;-70
2021/04/02 17:05:59;;;;;;;19.75;8.93;;;;;;;;;;8291743;28;20439;-69
2021/04/02 17:10:09;;;;;;;35.10;12.75;;;;;;;;;;8288381;28;20371;-71
2021/04/02 17:14:15;;;;;;;50.80;19.65;;;;;;;;;;8291998;28;20472;-70
2021/04/02 17:18:20;;;;;;;29.65;13.98;;;;;;;;;;8289989;28;20107;-71
2021/04/02 17:22:25;;;;;;;32.00;15.60;;;;;;;;;;8290517;28;20344;-70
2021/04/02 17:26:30;;;;;;;31.85;17.10;;;;;;;;;;8306075;28;20463;-70
2021/04/02 17:30:35;;;;;;;36.67;16.13;;;;;;;;;;8290195;28;20052;-70
2021/04/02 17:34:39;;;;;;;194.88;54.45;;;;;;;;;;8291109;28;20379;-70
2021/04/02 17:38:57;;;;;;;72.87;38.07;;;;;;;;;;8290862;28;20477;-70
2021/04/02 17:43:02;;;;;;;63.40;24.50;;;;;;;;;;8290624;28;20471;-70
2021/04/02 17:47:06;;;;;;;138.15;45.88;;;;;;;;;;8290207;28;20058;-70
2021/04/02 17:51:11;;;;;;;26.75;14.80;;;;;;;;;;8288052;28;20455;-70
2021/04/02 17:55:20;;;;;;;36.70;16.42;;;;;;;;;;8290246;28;20344;-70
2021/04/02 17:59:25;;;;;;;40.38;17.85;;;;;;;;;;8290535;28;20477;-70
2021/04/02 18:03:32;;;;;;;173.55;41.15;;;;;;;;;;8289698;28;20459;-70
2021/04/02 18:07:37;;;;;;;107.13;31.17;;;;;;;;;;8271947;28;20383;-70
2021/04/02 18:11:42;;;;;;;60.80;20.83;;;;;;;;;;8291687;28;20470;-70
2021/04/02 18:15:46;;;;;;;53.92;16.70;;;;;;;;;;8289983;28;20533;-70
2021/04/02 18:19:51;;;;;;;45.13;14.82;;;;;;;;;;8289463;28;20463;-69
2021/04/02 18:23:56;;;;;;;62.35;18.63;;;;;;;;;;8273768;28;20389;-71
2021/04/02 18:28:00;;;;;;;121.68;32.80;;;;;;;;;;8289208;28;20078;-69
2021/04/02 18:32:07;;;;;;;151.70;36.75;;;;;;;;;;8292878;28;20071;-70
2021/04/02 18:36:12;;;;;;;59.03;16.83;;;;;;;;;;8305268;28;20463;-70
2021/04/02 18:40:16;;;;;;;34.92;11.90;;;;;;;;;;8289013;28;20479;-70
2021/04/02 18:44:21;;;;;;;22.90;9.73;;;;;;;;;;8288913;28;20399;-69
2021/04/02 18:48:26;;;;;;;23.20;9.55;;;;;;;;;;8288987;28;20061;-69
2021/04/02 18:52:33;;;;;;;40.10;16.88;;;;;;;;;;8287763;28;20118;-69
2021/04/02 18:56:37;;;;;;;30.40;14.30;;;;;;;;;;8289173;28;20375;-69
2021/04/02 19:00:41;;;;;;;34.92;14.32;;;;;;;;;;8288576;28;20447;-69
2021/04/02 19:04:45;;;;;;;64.50;25.52;;;;;;;;;;8289606;28;20436;-71
2021/04/02 19:08:49;;;;;;;58.55;22.52;;;;;;;;;;8290920;28;20432;-70
2021/04/02 19:12:54;;;;;;;44.30;18.45;;;;;;;;;;8310618;28;20390;-70
2021/04/02 19:16:59;;;;;;;18.47;7.97;;;;;;;;;;8295722;28;20096;-70
2021/04/02 19:21:03;;;;;;;23.15;9.05;;;;;;;;;;8296899;28;20383;-70
2021/04/02 19:25:09;;;;;;;27.88;12.65;;;;;;;;;;8294270;28;20374;-70
2021/04/02 19:29:12;;;;;;;23.88;11.40;;;;;;;;;;8294141;28;20386;-71
2021/04/02 19:33:17;;;;;;;28.10;13.48;;;;;;;;;;8295757;28;20394;-70
2021/04/02 19:37:22;;;;;;;40.28;18.67;;;;;;;;;;8295464;28;20367;-70
2021/04/02 19:41:27;;;;;;;37.40;15.65;;;;;;;;;;8293979;28;20053;-70
2021/04/02 19:45:32;;;;;;;47.53;18.17;;;;;;;;;;8294953;28;20059;-71
2021/04/02 19:49:36;;;;;;;56.38;20.45;;;;;;;;;;8294678;28;20385;-71
2021/04/02 19:53:40;;;;;;;60.22;21.98;;;;;;;;;;8293884;28;20386;-70
2021/04/02 19:57:45;;;;;;;50.35;19.83;;;;;;;;;;8292829;28;20452;-71
2021/04/02 20:01:51;;;;;;;48.05;19.25;;;;;;;;;;8292210;28;20456;-71
2021/04/02 20:05:56;;;;;;;54.30;23.00;;;;;;;;;;8293667;28;20451;-70
2021/04/02 20:09:59;;;;;;;44.15;18.88;;;;;;;;;;8293791;28;20413;-70
2021/04/02 20:14:04;;;;;;;66.57;39.10;;;;;;;;;;8293877;28;20364;-71
2021/04/02 20:18:08;;;;;;;52.90;29.20;;;;;;;;;;8294347;28;20443;-70
2021/04/02 20:22:13;;;;;;;47.83;26.00;;;;;;;;;;8291296;28;20467;-70
2021/04/02 20:26:17;;;;;;;39.65;18.52;;;;;;;;;;8291023;28;20471;-70
2021/04/02 20:30:27;;;;;;;25.85;13.57;;;;;;;;;;8292473;28;20379;-70
2021/04/02 20:34:33;;;;;;;26.83;12.38;;;;;;;;;;8293910;28;20471;-70
2021/04/02 20:38:36;;;;;;;25.65;11.18;;;;;;;;;;8292328;28;20413;-70
2021/04/02 20:42:40;;;;;;;24.10;10.25;;;;;;;;;;8293211;28;20497;-70
2021/04/02 20:46:45;;;;;;;25.00;11.45;;;;;;;;;;8307454;28;20467;-70
2021/04/02 20:50:52;;;;;;;23.65;10.13;;;;;;;;;;8291737;28;20651;-70
2021/04/02 20:54:56;;;;;;;23.63;10.52;;;;;;;;;;8293062;28;20472;-69
2021/04/02 20:59:03;;;;;;;28.63;12.80;;;;;;;;;;8291638;28;20471;-70
2021/04/02 21:03:08;;;;;;;22.45;10.95;;;;;;;;;;8291907;28;20067;-70
2021/04/02 21:07:13;;;;;;;73.38;26.00;;;;;;;;;;8291870;28;20461;-70
2021/04/02 21:11:21;;;;;;;91.10;33.57;;;;;;;;;;8292963;28;20049;-70
2021/04/02 21:15:25;;;;;;;93.72;36.55;;;;;;;;;;8292115;28;20048;-70
2021/04/02 21:19:32;;;;;;;79.30;29.45;;;;;;;;;;8293123;28;20366;-71
2021/04/02 21:23:36;;;;;;;71.45;30.42;;;;;;;;;;8309289;28;20489;-70
2021/04/02 21:27:43;;;;;;;73.20;30.13;;;;;;;;;;8293398;28;20347;-70
2021/04/02 21:31:47;;;;;;;62.58;25.67;;;;;;;;;;8293859;28;20053;-70
2021/04/02 21:35:52;;;;;;;70.50;26.88;;;;;;;;;;8291210;28;20455;-70
2021/04/02 21:39:56;;;;;;;65.88;25.83;;;;;;;;;;8291158;28;20469;-70
2021/04/02 21:44:01;;;;;;;74.53;30.73;;;;;;;;;;8290438;28;20533;-69
2021/04/02 21:48:06;;;;;;;86.18;30.73;;;;;;;;;;8291173;28;20456;-70
2021/04/02 21:52:11;;;;;;;73.95;29.77;;;;;;;;;;8290320;28;20474;-70
2021/04/02 21:56:15;;;;;;;68.05;28.02;;;;;;;;;;8291373;28;20487;-70
2021/04/02 22:00:25;;;;;;;68.35;25.50;;;;;;;;;;8289777;28;20070;-70
2021/04/02 22:04:31;;;;;;;63.60;25.30;;;;;;;;;;8290252;28;20329;-70
2021/04/02 22:08:36;;;;;;;66.03;27.73;;;;;;;;;;8289225;28;20463;-70
2021/04/02 22:12:41;;;;;;;72.30;30.65;;;;;;;;;;8290925;28;20490;-70
2021/04/02 22:16:47;;;;;;;96.88;35.70;;;;;;;;;;8291295;28;20336;-70
2021/04/02 22:20:56;;;;;;;101.82;37.08;;;;;;;;;;8273041;28;20474;-70
2021/04/02 22:25:00;;;;;;;96.53;36.95;;;;;;;;;;8291510;28;20462;-70
2021/04/02 22:29:06;;;;;;;85.95;32.10;;;;;;;;;;8289502;28;20479;-70
2021/04/02 22:33:11;;;;;;;79.95;29.30;;;;;;;;;;8289651;28;20364;-70
2021/04/02 22:37:15;;;;;;;62.25;25.33;;;;;;;;;;8289770;28;20370;-70
2021/04/02 22:41:21;;;;;;;62.28;27.30;;;;;;;;;;8290327;28;20053;-70
2021/04/02 22:45:25;;;;;;;78.57;28.60;;;;;;;;;;8293458;28;20382;-69
2021/04/02 22:49:30;;;;;;;73.28;28.98;;;;;;;;;;8296845;28;20374;-70
2021/04/02 22:53:40;;;;;;;64.63;23.95;;;;;;;;;;8297242;28;20387;-70
2021/04/02 22:57:45;;;;;;;52.75;22.45;;;;;;;;;;8296184;28;20465;-70
2021/04/02 23:01:50;;;;;;;59.70;25.17;;;;;;;;;;8297766;28;20407;-70
2021/04/02 23:05:55;;;;;;;65.90;26.15;;;;;;;;;;8293937;28;20439;-72
2021/04/02 23:10:02;;;;;;;54.70;22.88;;;;;;;;;;8295481;28;20486;-70
2021/04/02 23:14:06;;;;;;;55.90;21.58;;;;;;;;;;8295475;28;20056;-70
2021/04/02 23:18:12;;;;;;;51.20;20.60;;;;;;;;;;8294192;28;20382;-70
2021/04/02 23:22:16;;;;;;;72.32;27.67;;;;;;;;;;8292914;28;20490;-70
2021/04/02 23:26:20;;;;;;;75.03;25.30;;;;;;;;;;8295800;28;20493;-70
2021/04/02 23:30:30;;;;;;;67.00;23.48;;;;;;;;;;8294603;28;20052;-70
2021/04/02 23:34:35;;;;;;;67.80;25.15;;;;;;;;;;8294783;28;20489;-71
2021/04/02 23:38:39;;;;;;;63.85;24.23;;;;;;;;;;8294674;28;20048;-70
2021/04/02 23:43:02;;;;;;;59.83;23.50;;;;;;;;;;8293244;28;20459;-70
2021/04/02 23:47:06;;;;;;;60.55;22.25;;;;;;;;;;8294554;28;20471;-70
2021/04/02 23:51:11;;;;;;;62.70;22.38;;;;;;;;;;8293584;28;20067;-71
2021/04/02 23:55:16;;;;;;;62.28;23.38;;;;;;;;;;8294163;28;20524;-70
2021/04/02 23:59:20;;;;;;;64.93;23.52;;;;;;;;;;8294144;28;20158;-70
